Terminal Aerodrome Forecast
Issued by NWS

Home | Current Version | Previous Version | Text Only | Print | Product List | Glossary On
Versions: 1 2 3 4 5 6 7 8 9 10 11 12 13 14
000
FTUS46 KLOX 250500
TAFLGB
TAF
KLGB 250521Z 2506/2606 VRB03KT P6SM SCT200
     FM251800 19008KT P6SM SCT150
     FM252300 29008KT P6SM SCT150
     FM260500 VRB03KT P6SM SCT150=

USA.gov is the U.S. government's official web portal to all federal, state and local government web resources and services.